Time;durP1;ratioP1;P1;durP2;ratioP2;P2;SDS_P1;SDS_P2;PMS_P1;PMS_P2;Temp;Humidity;BMP_temperature;BMP_pressure;BME280_temperature;BME280_humidity;BME280_pressure;Samples;Min_cycle;Max_cycle;Signal;HPM_P1;HPM_P2
2022/12/27 00:02:21;;;;;;;3.85;0.30;;;4.60;99.90;;;;;;5034071;28;20032;-76
2022/12/27 00:04:46;;;;;;;8.10;0.47;;;4.60;99.90;;;;;;5034104;28;20058;-76
2022/12/27 00:07:12;;;;;;;3.20;0.28;;;4.50;99.90;;;;;;5034480;28;20057;-76
2022/12/27 00:09:37;;;;;;;2.53;0.60;;;4.50;99.90;;;;;;5034265;28;20025;-76
2022/12/27 00:12:03;;;;;;;9.57;0.73;;;4.50;99.90;;;;;;5033837;28;20100;-76
2022/12/27 00:14:29;;;;;;;6.93;0.35;;;4.40;99.90;;;;;;5032504;28;20052;-76
2022/12/27 00:16:55;;;;;;;14.05;0.95;;;4.40;99.90;;;;;;5034027;28;20053;-76
2022/12/27 00:19:20;;;;;;;6.70;0.77;;;4.40;99.90;;;;;;5032675;28;20502;-76
2022/12/27 00:21:46;;;;;;;5.85;0.50;;;4.40;99.90;;;;;;5033900;28;20010;-76
2022/12/27 00:24:11;;;;;;;7.93;0.50;;;4.40;99.90;;;;;;5034031;28;20041;-76
2022/12/27 00:26:38;;;;;;;7.72;0.47;;;4.40;99.90;;;;;;5032192;28;20029;-76
2022/12/27 00:29:04;;;;;;;2.80;0.38;;;4.50;99.90;;;;;;5032104;28;20108;-76
2022/12/27 00:31:30;;;;;;;6.32;0.15;;;4.60;99.90;;;;;;5033654;28;20064;-76
2022/12/27 00:33:58;;;;;;;6.55;0.75;;;4.60;99.90;;;;;;5033999;28;20026;-76
2022/12/27 00:36:26;;;;;;;2.70;0.03;;;4.60;99.90;;;;;;5032283;28;20169;-76
2022/12/27 00:38:53;;;;;;;3.47;0.10;;;4.70;99.90;;;;;;5033690;28;20512;-76
2022/12/27 00:41:19;;;;;;;4.38;0.10;;;4.60;99.90;;;;;;5033197;28;20045;-76
2022/12/27 00:43:45;;;;;;;5.55;0.17;;;4.60;99.90;;;;;;5034670;28;20030;-76
2022/12/27 00:46:11;;;;;;;4.60;0.15;;;4.60;99.90;;;;;;5032492;28;20029;-77
2022/12/27 00:48:37;;;;;;;4.32;0.25;;;4.70;99.90;;;;;;5033230;28;20022;-76
2022/12/27 00:51:04;;;;;;;8.15;0.60;;;4.60;99.90;;;;;;5033168;28;20120;-77
2022/12/27 00:53:30;;;;;;;6.10;0.65;;;4.70;99.90;;;;;;5034449;28;20037;-76
2022/12/27 00:55:56;;;;;;;4.32;0.20;;;4.70;99.90;;;;;;5034643;28;20495;-76
2022/12/27 00:58:22;;;;;;;7.38;0.38;;;4.70;99.90;;;;;;5033922;28;20369;-76
2022/12/27 01:00:48;;;;;;;4.28;0.32;;;4.70;99.90;;;;;;5037400;28;20028;-76
2022/12/27 01:03:15;;;;;;;8.88;0.55;;;4.70;99.90;;;;;;5036162;28;20051;-77
2022/12/27 01:05:41;;;;;;;3.65;0.00;;;4.80;99.90;;;;;;5036358;28;20033;-78
2022/12/27 01:08:06;;;;;;;5.68;0.25;;;4.80;99.90;;;;;;5036078;28;20098;-78
2022/12/27 01:10:32;;;;;;;4.55;0.20;;;4.80;99.90;;;;;;5036241;28;20056;-78
2022/12/27 01:13:03;;;;;;;5.43;0.22;;;4.80;99.90;;;;;;5037579;28;20480;-78
2022/12/27 01:15:28;;;;;;;3.15;0.20;;;4.70;99.90;;;;;;5037429;28;20065;-78
2022/12/27 01:17:54;;;;;;;3.95;0.10;;;4.60;99.90;;;;;;5035986;28;20028;-78
2022/12/27 01:20:20;;;;;;;5.72;0.25;;;4.50;99.90;;;;;;5035992;28;20028;-78
2022/12/27 01:22:46;;;;;;;7.88;0.30;;;4.60;99.90;;;;;;5035998;28;20043;-78
2022/12/27 01:25:11;;;;;;;6.63;0.90;;;4.50;99.90;;;;;;5037527;28;20034;-78
2022/12/27 01:27:37;;;;;;;6.95;0.50;;;4.50;99.90;;;;;;5037176;28;20496;-78
2022/12/27 01:30:06;;;;;;;8.27;0.52;;;4.40;99.90;;;;;;5037389;28;20083;-78
2022/12/27 01:32:33;;;;;;;1.25;0.08;;;4.50;99.90;;;;;;5035841;28;20037;-78
2022/12/27 01:34:58;;;;;;;6.32;0.82;;;6.20;99.90;;;;;;5035527;28;20029;-78
2022/12/27 01:37:27;;;;;;;6.40;0.82;;;4.60;99.90;;;;;;5036266;28;20117;-78
2022/12/27 01:39:53;;;;;;;;;;;4.60;99.90;;;;;;5035841;28;20159;-78
2022/12/27 01:45:21;;;;;;;4.43;0.22;;;4.70;99.90;;;;;;5036997;28;20064;-78
2022/12/27 01:47:52;;;;;;;1.60;0.00;;;4.80;99.90;;;;;;5035750;28;20036;-78
2022/12/27 01:50:29;;;;;;;5.28;0.35;;;4.80;99.90;;;;;;5035301;28;20041;-78
2022/12/27 01:53:09;;;;;;;2.35;0.10;;;4.80;99.90;;;;;;5034882;28;20396;-78
2022/12/27 01:55:54;;;;;;;3.28;0.63;;;4.80;99.90;;;;;;5036494;28;20021;-78
2022/12/27 01:58:42;;;;;;;3.47;0.28;;;4.90;99.90;;;;;;5035639;28;20032;-78
2022/12/27 02:01:19;;;;;;;3.80;0.10;;;4.90;99.90;;;;;;5036152;28;20484;-77
2022/12/27 02:03:50;;;;;;;5.55;0.10;;;4.90;99.90;;;;;;5036066;28;20029;-78
2022/12/27 02:06:18;;;;;;;5.70;0.40;;;4.90;99.90;;;;;;5036312;28;20029;-77
2022/12/27 02:08:59;;;;;;;5.65;0.47;;;4.80;99.90;;;;;;5036148;28;20025;-77
2022/12/27 02:14:13;;;;;;;3.38;0.35;;;4.70;99.90;;;;;;5036463;28;20041;-77
2022/12/27 02:16:39;;;;;;;8.65;0.65;;;4.70;99.90;;;;;;5034849;28;20116;-77
2022/12/27 02:19:17;;;;;;;6.43;0.40;;;4.70;99.90;;;;;;5035423;28;20053;-77
2022/12/27 02:22:17;;;;;;;7.55;0.47;;;4.70;99.90;;;;;;5036275;28;20071;-79
2022/12/27 02:25:01;;;;;;;6.90;0.45;;;4.70;99.90;;;;;;5036647;28;20090;-79
2022/12/27 02:27:52;;;;;;;4.85;0.28;;;4.70;99.90;;;;;;5036770;28;20064;-79
2022/12/27 02:30:18;;;;;;;3.17;0.30;;;4.70;99.90;;;;;;5035759;28;20039;-80
2022/12/27 02:33:06;;;;;;;6.63;1.05;;;4.70;99.90;;;;;;5036898;28;20057;-79
2022/12/27 02:35:41;;;;;;;6.57;0.30;;;4.60;99.90;;;;;;5034844;28;20480;-78
2022/12/27 02:38:10;;;;;;;3.08;0.30;;;4.70;99.90;;;;;;5035189;28;20029;-77
2022/12/27 02:55:18;;;;;;;11.40;0.47;;;4.50;99.90;;;;;;5035785;28;20064;-77
2022/12/27 02:58:05;;;;;;;14.00;1.33;;;4.50;99.90;;;;;;5035754;28;20036;-77
2022/12/27 03:03:51;;;;;;;6.75;0.73;;;4.30;99.90;;;;;;5034503;28;20048;-77
2022/12/27 03:06:46;;;;;;;5.47;0.38;;;4.30;99.90;;;;;;5034436;28;20021;-77
2022/12/27 03:15:55;;;;;;;6.75;0.30;;;4.30;99.90;;;;;;5034716;28;20037;-77
2022/12/27 03:18:27;;;;;;;6.13;0.45;;;4.30;99.90;;;;;;5034468;28;20021;-77
2022/12/27 03:26:31;;;;;;;11.60;0.20;;;4.20;99.90;;;;;;5035247;28;20056;-76
2022/12/27 03:34:38;;;;;;;14.25;0.75;;;4.40;99.90;;;;;;5034662;28;20032;-78
2022/12/27 03:40:14;;;;;;;9.68;0.32;;;4.40;99.90;;;;;;5034614;28;20084;-77
2022/12/27 03:48:28;;;;;;;6.18;0.57;;;4.60;99.90;;;;;;5034253;28;20079;-77
2022/12/27 03:51:03;;;;;;;5.00;1.05;;;4.60;99.90;;;;;;5033003;28;20036;-77
2022/12/27 03:53:37;;;;;;;11.70;0.68;;;4.50;99.90;;;;;;5034227;28;20075;-76
2022/12/27 03:56:04;;;;;;;5.43;0.73;;;4.50;99.90;;;;;;5033033;28;20392;-76
2022/12/27 03:58:29;;;;;;;4.95;0.77;;;4.50;99.90;;;;;;5033956;28;20048;-76
2022/12/27 04:00:55;;;;;;;5.07;0.32;;;4.50;99.90;;;;;;5033790;28;20022;-76
2022/12/27 04:03:20;;;;;;;5.60;0.40;;;4.50;99.90;;;;;;5033618;28;20392;-76
2022/12/27 04:05:46;;;;;;;11.57;0.57;;;4.50;99.90;;;;;;5032662;28;20024;-76
2022/12/27 04:35:32;;;;;;;7.50;0.85;;;4.20;99.90;;;;;;5037930;28;20083;-77
2022/12/27 04:37:58;;;;;;;4.95;0.15;;;4.30;99.90;;;;;;5036292;28;20025;-78
2022/12/27 04:57:03;;;;;;;4.97;0.45;;;4.30;99.90;;;;;;5037354;28;20100;-78
2022/12/27 05:02:14;;;;;;;6.35;0.85;;;4.30;99.90;;;;;;5037815;28;20522;-78
2022/12/27 05:04:40;;;;;;;3.47;0.10;;;4.30;99.90;;;;;;5036562;28;20018;-78
2022/12/27 05:15:22;;;;;;;11.63;1.52;;;4.20;99.90;;;;;;5037793;28;20075;-79
2022/12/27 05:17:47;;;;;;;7.65;0.25;;;4.30;99.90;;;;;;5036458;28;20030;-78
2022/12/27 05:20:13;;;;;;;3.30;0.10;;;4.20;99.90;;;;;;5037336;28;20025;-79
2022/12/27 05:25:37;;;;;;;8.63;0.32;;;4.20;99.90;;;;;;5041696;28;20048;-79
2022/12/27 05:28:04;;;;;;;5.55;0.50;;;4.10;99.90;;;;;;5036061;28;20112;-78
2022/12/27 05:30:34;;;;;;;8.70;0.52;;;4.20;99.90;;;;;;5035917;28;20036;-78
2022/12/27 05:33:00;;;;;;;5.70;0.20;;;4.30;99.90;;;;;;5037009;28;20095;-78
2022/12/27 05:35:26;;;;;;;1.05;0.22;;;4.30;99.90;;;;;;5037385;28;20009;-78
2022/12/27 05:40:28;;;;;;;11.00;1.50;;;4.20;99.90;;;;;;5269154;23;20071;-80
2022/12/27 05:42:56;;;;;;;6.47;0.57;;;4.20;99.90;;;;;;5056765;28;20021;-79
2022/12/27 05:45:22;;;;;;;6.18;0.63;;;4.20;99.90;;;;;;5056757;28;20033;-79
2022/12/27 05:47:47;;;;;;;6.07;1.40;;;4.10;99.90;;;;;;5057042;28;20103;-79
2022/12/27 05:50:13;;;;;;;4.78;0.10;;;4.10;99.90;;;;;;5057091;28;20086;-79
2022/12/27 05:52:39;;;;;;;4.72;0.20;;;4.10;99.90;;;;;;5055732;28;20021;-78
2022/12/27 05:55:06;;;;;;;9.73;0.70;;;4.10;99.90;;;;;;5055551;28;20031;-78
2022/12/27 05:57:32;;;;;;;7.88;0.38;;;4.00;99.90;;;;;;5057439;28;20013;-77
2022/12/27 05:59:57;;;;;;;12.10;0.30;;;4.00;99.90;;;;;;5056664;28;20021;-78
2022/12/27 06:02:23;;;;;;;5.10;0.30;;;4.00;99.90;;;;;;5056799;28;20043;-77
2022/12/27 06:04:48;;;;;;;3.42;0.75;;;3.90;99.90;;;;;;5056720;28;20025;-78
2022/12/27 06:07:15;;;;;;;21.67;1.08;;;4.00;99.90;;;;;;5054835;28;20029;-78
2022/12/27 06:09:41;;;;;;;5.80;0.75;;;4.00;99.90;;;;;;5056301;28;20021;-78
2022/12/27 06:12:07;;;;;;;5.00;0.10;;;4.00;99.90;;;;;;5056534;28;20024;-78
2022/12/27 06:14:33;;;;;;;8.35;0.22;;;4.00;99.90;;;;;;5056232;28;20104;-77
2022/12/27 06:16:58;;;;;;;4.78;0.17;;;4.00;99.90;;;;;;5054762;28;20029;-78
2022/12/27 06:19:24;;;;;;;10.82;0.90;;;4.00;99.90;;;;;;5056374;28;20088;-77
2022/12/27 06:21:50;;;;;;;6.93;0.20;;;4.00;99.90;;;;;;5056333;28;20479;-78
2022/12/27 06:24:15;;;;;;;13.45;1.65;;;4.00;99.90;;;;;;5055006;28;20492;-78
2022/12/27 06:26:41;;;;;;;5.70;0.22;;;4.00;99.90;;;;;;5056763;28;20033;-78
2022/12/27 06:29:10;;;;;;;6.95;0.70;;;4.00;99.90;;;;;;5055716;28;20029;-78
2022/12/27 06:31:36;;;;;;;;;;;4.00;99.90;;;;;;5055104;28;20024;-78
2022/12/27 06:34:02;;;;;;;5.75;0.22;;;4.00;99.90;;;;;;5054677;28;20012;-78
2022/12/27 06:36:31;;;;;;;8.45;0.75;;;4.10;99.90;;;;;;5055599;28;20118;-78
2022/12/27 06:38:58;;;;;;;5.00;1.17;;;4.00;99.90;;;;;;5054497;28;20075;-78
2022/12/27 06:41:23;;;;;;;7.57;0.10;;;4.00;99.90;;;;;;5056301;28;20071;-77
2022/12/27 06:43:53;;;;;;;15.60;0.75;;;4.20;99.90;;;;;;5056030;28;20430;-77
2022/12/27 06:46:19;;;;;;;7.78;1.10;;;4.20;99.90;;;;;;5056576;28;20021;-77
2022/12/27 06:48:46;;;;;;;2.92;0.00;;;4.10;99.90;;;;;;5054167;28;20025;-77
2022/12/27 06:51:12;;;;;;;14.15;0.98;;;4.10;99.90;;;;;;5055464;28;20368;-77
2022/12/27 06:53:38;;;;;;;5.55;0.25;;;4.10;99.90;;;;;;5054222;28;20122;-77
2022/12/27 06:56:06;;;;;;;6.97;0.20;;;4.00;99.90;;;;;;5055324;28;20032;-77
2022/12/27 06:58:32;;;;;;;5.63;0.40;;;4.00;99.90;;;;;;5054124;28;20109;-77
2022/12/27 07:01:09;;;;;;;10.18;0.20;;;4.00;99.90;;;;;;5054371;28;20460;-78
2022/12/27 07:03:35;;;;;;;13.05;0.75;;;4.00;99.90;;;;;;5055641;28;20029;-78
2022/12/27 07:06:05;;;;;;;7.10;0.20;;;3.90;99.90;;;;;;5056094;28;20055;-78
2022/12/27 07:08:31;;;;;;;3.38;0.50;;;3.90;99.90;;;;;;5055800;28;20025;-77
2022/12/27 07:11:02;;;;;;;3.70;0.10;;;3.90;99.90;;;;;;5055362;28;20017;-77
2022/12/27 07:13:28;;;;;;;8.80;0.22;;;3.90;99.90;;;;;;5055668;28;20036;-77
2022/12/27 07:15:53;;;;;;;12.93;0.40;;;3.90;99.90;;;;;;5054379;28;20381;-78
2022/12/27 07:18:19;;;;;;;14.02;1.02;;;3.90;99.90;;;;;;5055045;28;20021;-78
2022/12/27 07:20:45;;;;;;;6.90;0.38;;;3.90;99.90;;;;;;5055599;28;20024;-77
2022/12/27 07:23:12;;;;;;;5.10;0.73;;;4.00;99.90;;;;;;5055798;28;20468;-78
2022/12/27 07:25:37;;;;;;;6.53;0.50;;;4.00;99.90;;;;;;5055297;28;20524;-78
2022/12/27 07:28:03;;;;;;;7.97;0.73;;;4.10;99.90;;;;;;5053828;28;20043;-78
2022/12/27 07:30:28;;;;;;;5.70;0.93;;;4.00;99.90;;;;;;5055279;28;20013;-78
2022/12/27 07:32:54;;;;;;;4.32;0.10;;;4.00;99.90;;;;;;5054536;28;20014;-78
2022/12/27 07:35:20;;;;;;;7.38;0.30;;;4.00;99.90;;;;;;5053487;28;20115;-79
2022/12/27 07:37:45;;;;;;;6.55;0.40;;;4.00;99.90;;;;;;5055538;28;20021;-78
2022/12/27 07:40:11;;;;;;;6.20;0.35;;;4.00;99.90;;;;;;5053853;28;20029;-78
2022/12/27 07:42:36;;;;;;;7.38;0.10;;;4.10;99.90;;;;;;5054056;28;20025;-78
2022/12/27 07:45:02;;;;;;;8.85;0.10;;;4.00;99.90;;;;;;5054085;28;20033;-78
2022/12/27 07:47:28;;;;;;;2.88;0.45;;;4.10;99.90;;;;;;5054883;28;20021;-78
2022/12/27 07:49:53;;;;;;;6.43;0.43;;;4.10;99.90;;;;;;5053803;28;20625;-78
2022/12/27 07:52:19;;;;;;;9.40;1.35;;;4.10;99.90;;;;;;5053747;28;20549;-78
2022/12/27 07:54:45;;;;;;;9.73;0.52;;;;;;;;;;5053812;28;20414;-78
2022/12/27 07:57:10;;;;;;;2.28;0.20;;;4.20;99.90;;;;;;5052463;28;20116;-77
2022/12/27 07:59:36;;;;;;;4.50;0.30;;;4.10;99.90;;;;;;5052952;28;20017;-78
2022/12/27 08:02:04;;;;;;;11.38;1.23;;;4.10;99.90;;;;;;5052492;28;20100;-78
2022/12/27 08:04:32;;;;;;;5.93;0.30;;;4.10;99.90;;;;;;5054865;28;20032;-78
2022/12/27 08:07:10;;;;;;;10.23;0.40;;;4.10;99.90;;;;;;5052748;28;20070;-78
2022/12/27 08:09:38;;;;;;;8.77;1.13;;;4.10;99.90;;;;;;5055970;28;20426;-78
2022/12/27 08:12:04;;;;;;;10.02;0.30;;;4.10;99.90;;;;;;5057429;28;20121;-78
2022/12/27 08:14:30;;;;;;;8.70;0.45;;;;;;;;;;5057933;28;20021;-78
2022/12/27 08:17:12;;;;;;;4.07;0.98;;;4.10;99.90;;;;;;5058142;28;20438;-77
2022/12/27 08:19:38;;;;;;;10.55;0.70;;;4.10;99.90;;;;;;5058000;28;20017;-79
2022/12/27 08:22:04;;;;;;;8.82;0.50;;;4.10;99.90;;;;;;5057056;28;20028;-77
2022/12/27 08:24:30;;;;;;;10.82;0.60;;;4.10;99.90;;;;;;5056993;28;20033;-76
2022/12/27 08:26:56;;;;;;;13.38;1.42;;;4.10;99.90;;;;;;5058244;28;20032;-77
2022/12/27 08:29:21;;;;;;;3.20;0.73;;;4.10;99.90;;;;;;5058623;28;20029;-77
2022/12/27 08:31:47;;;;;;;8.75;0.77;;;4.10;99.90;;;;;;5058854;28;20033;-77
2022/12/27 08:34:12;;;;;;;10.93;1.00;;;4.20;99.90;;;;;;5056836;28;20029;-77
2022/12/27 08:36:38;;;;;;;17.52;1.60;;;4.20;99.90;;;;;;5057432;28;20021;-78
2022/12/27 08:39:03;;;;;;;12.45;0.90;;;4.30;99.90;;;;;;5057515;28;20041;-76
2022/12/27 08:41:29;;;;;;;6.80;1.08;;;4.40;99.90;;;;;;5057452;28;20021;-76
2022/12/27 08:43:55;;;;;;;19.25;2.47;;;4.50;99.90;;;;;;5058244;28;20017;-76
2022/12/27 08:46:20;;;;;;;13.88;0.40;;;4.60;99.90;;;;;;5057713;28;20486;-78
2022/12/27 08:48:47;;;;;;;10.35;0.60;;;4.70;99.90;;;;;;5057239;28;20021;-77
2022/12/27 08:51:13;;;;;;;7.38;1.10;;;6.50;99.90;;;;;;5057095;28;20399;-76
2022/12/27 08:53:38;;;;;;;14.88;1.27;;;4.70;99.90;;;;;;5055469;28;20017;-76
2022/12/27 08:56:04;;;;;;;4.45;0.50;;;4.80;99.90;;;;;;5055820;28;20048;-76
2022/12/27 08:58:30;;;;;;;13.70;1.92;;;4.80;99.90;;;;;;5056247;28;20028;-76
2022/12/27 09:00:55;;;;;;;6.82;0.73;;;4.80;99.90;;;;;;5056879;28;20025;-76
2022/12/27 09:03:21;;;;;;;15.60;1.83;;;4.80;99.90;;;;;;5057190;28;20052;-76
2022/12/27 09:05:50;;;;;;;9.02;0.80;;;4.90;99.90;;;;;;5055631;28;20017;-76
2022/12/27 09:08:16;;;;;;;8.30;0.82;;;4.90;99.90;;;;;;5057687;28;20025;-76
2022/12/27 09:10:41;;;;;;;6.85;0.40;;;5.00;99.90;;;;;;5057007;28;20024;-76
2022/12/27 09:13:07;;;;;;;21.00;1.50;;;5.00;99.90;;;;;;5055216;28;20028;-76
2022/12/27 09:15:32;;;;;;;11.13;0.90;;;5.00;99.90;;;;;;5055703;28;20021;-78
2022/12/27 09:18:02;;;;;;;9.30;0.88;;;5.00;99.90;;;;;;5055737;28;20021;-78
2022/12/27 09:20:27;;;;;;;4.47;1.13;;;5.00;99.90;;;;;;5054902;28;20032;-79
2022/12/27 09:22:53;;;;;;;8.95;0.85;;;4.90;99.90;;;;;;5056005;28;20021;-79
2022/12/27 09:25:19;;;;;;;6.70;0.65;;;4.90;99.90;;;;;;5054649;28;20111;-80
2022/12/27 09:27:44;;;;;;;6.82;1.58;;;5.00;99.90;;;;;;5055248;28;20017;-79
2022/12/27 09:30:12;;;;;;;6.07;1.52;;;5.00;99.90;;;;;;5056684;28;20025;-78
2022/12/27 09:32:37;;;;;;;9.75;0.82;;;5.10;99.90;;;;;;5055238;28;20025;-77
2022/12/27 09:35:03;;;;;;;9.45;0.75;;;5.10;99.90;;;;;;5058057;28;20021;-77
2022/12/27 09:37:30;;;;;;;8.43;0.98;;;5.10;99.90;;;;;;5056407;28;20059;-78
2022/12/27 09:39:56;;;;;;;6.88;0.93;;;5.10;99.90;;;;;;5057008;28;20391;-76
2022/12/27 09:42:43;;;;;;;10.85;1.33;;;5.20;99.90;;;;;;5056146;28;20116;-77
2022/12/27 09:45:17;;;;;;;5.55;0.90;;;5.10;99.90;;;;;;5056815;28;20104;-77
2022/12/27 09:47:55;;;;;;;9.30;1.50;;;5.10;99.90;;;;;;5056873;28;20036;-76
2022/12/27 09:50:32;;;;;;;10.82;1.00;;;5.00;99.90;;;;;;5057541;28;20106;-76
2022/12/27 09:53:16;;;;;;;5.88;1.00;;;5.00;99.90;;;;;;5055432;28;20021;-77
2022/12/27 09:55:50;;;;;;;7.70;1.85;;;4.90;99.90;;;;;;5057218;28;20045;-77
2022/12/27 09:58:29;;;;;;;12.88;2.05;;;4.90;99.90;;;;;;5059059;28;20032;-77
2022/12/27 10:00:54;;;;;;;7.60;1.88;;;4.80;99.90;;;;;;5056216;28;20017;-77
2022/12/27 10:03:26;;;;;;;6.72;1.33;;;4.80;99.90;;;;;;5055273;28;20024;-77
2022/12/27 10:06:27;;;;;;;7.63;1.35;;;4.80;99.90;;;;;;5056460;28;20103;-77
2022/12/27 10:08:59;;;;;;;5.25;1.60;;;5.00;99.90;;;;;;5040435;28;20459;-77
2022/12/27 10:11:37;;;;;;;14.65;2.72;;;5.00;99.90;;;;;;5057306;28;20430;-77
2022/12/27 10:14:35;;;;;;;7.70;1.00;;;5.10;99.90;;;;;;5054727;28;20116;-77
2022/12/27 10:17:03;;;;;;;11.18;1.73;;;5.10;99.90;;;;;;5054843;28;20017;-77
2022/12/27 10:19:47;;;;;;;7.88;1.25;;;5.20;99.90;;;;;;5055914;28;20025;-77
2022/12/27 10:22:15;;;;;;;10.60;1.75;;;5.30;99.90;;;;;;5056088;28;20479;-77
2022/12/27 10:24:49;;;;;;;11.07;2.58;;;5.40;99.90;;;;;;5056561;28;20392;-78
2022/12/27 10:27:26;;;;;;;9.23;2.25;;;5.40;99.90;;;;;;5056371;28;20115;-77
2022/12/27 10:29:54;;;;;;;11.05;2.03;;;5.40;99.90;;;;;;5054283;28;20116;-77
2022/12/27 10:32:20;;;;;;;6.28;1.98;;;5.30;99.90;;;;;;5054355;28;20441;-77
2022/12/27 10:34:53;;;;;;;10.02;2.75;;;5.30;99.90;;;;;;5055569;28;20055;-78
2022/12/27 10:37:18;;;;;;;8.40;2.42;;;5.30;99.90;;;;;;5055687;28;20025;-77
2022/12/27 10:39:45;;;;;;;16.73;2.45;;;5.40;99.90;;;;;;5055508;28;20048;-77
2022/12/27 10:42:34;;;;;;;8.88;2.05;;;5.40;99.90;;;;;;5054094;28;20534;-77
2022/12/27 10:45:26;;;;;;;10.38;2.55;;;5.60;99.90;;;;;;5055671;28;20377;-77
2022/12/27 10:47:54;;;;;;;15.45;1.90;;;5.70;99.90;;;;;;5054225;28;20496;-77
2022/12/27 10:50:23;;;;;;;15.68;2.63;;;5.60;99.90;;;;;;5056725;28;20502;-77
2022/12/27 10:52:50;;;;;;;9.50;1.52;;;5.80;99.90;;;;;;5055474;28;20071;-77
2022/12/27 10:55:34;;;;;;;6.60;1.90;;;5.80;99.90;;;;;;5056566;28;20036;-77
2022/12/27 10:58:19;;;;;;;7.32;1.50;;;5.80;99.90;;;;;;5059174;28;20407;-77
2022/12/27 11:00:55;;;;;;;6.32;1.63;;;6.00;99.90;;;;;;5057131;28;20024;-77
2022/12/27 11:03:21;;;;;;;10.40;1.80;;;6.00;99.90;;;;;;5055308;28;20025;-77
2022/12/27 11:05:59;;;;;;;8.30;1.27;;;6.00;99.90;;;;;;5055345;28;20086;-77
2022/12/27 11:08:25;;;;;;;13.35;1.80;;;6.10;99.90;;;;;;5054530;28;20056;-77
2022/12/27 11:11:15;;;;;;;9.90;1.50;;;6.10;99.90;;;;;;5054234;28;20021;-77
2022/12/27 11:13:41;;;;;;;11.85;2.17;;;6.20;99.90;;;;;;5054249;28;20037;-77
2022/12/27 11:16:17;;;;;;;8.50;1.20;;;8.00;99.90;;;;;;5054699;28;20028;-77
2022/12/27 11:18:47;;;;;;;6.25;1.98;;;6.70;99.90;;;;;;5054093;28;20507;-77
2022/12/27 11:21:15;;;;;;;8.10;1.20;;;6.90;99.90;;;;;;5052679;28;20017;-78
2022/12/27 11:23:45;;;;;;;7.03;1.80;;;6.80;99.90;;;;;;5052850;28;20032;-77
2022/12/27 11:26:28;;;;;;;7.57;0.85;;;6.90;99.90;;;;;;5054237;28;20061;-77
2022/12/27 11:29:00;;;;;;;7.22;1.35;;;7.10;99.90;;;;;;5054099;28;20025;-77
2022/12/27 11:31:43;;;;;;;6.25;1.10;;;7.10;99.90;;;;;;5054295;28;20074;-77
2022/12/27 11:34:26;;;;;;;14.80;1.58;;;7.10;99.90;;;;;;5053932;28;20024;-77
2022/12/27 11:37:04;;;;;;;12.73;1.88;;;7.20;99.90;;;;;;5053829;28;20430;-78
2022/12/27 11:39:44;;;;;;;5.80;0.88;;;7.40;99.90;;;;;;5053430;28;20131;-78
2022/12/27 11:42:37;;;;;;;5.93;0.70;;;7.40;99.90;;;;;;5054454;28;20036;-77
2022/12/27 11:45:22;;;;;;;6.03;1.08;;;7.50;99.90;;;;;;5053342;28;20029;-78
2022/12/27 11:48:16;;;;;;;5.88;1.27;;;7.50;99.90;;;;;;5054977;28;20499;-78
2022/12/27 11:50:48;;;;;;;3.40;0.90;;;7.50;99.90;;;;;;5056980;28;20469;-77
2022/12/27 11:53:51;;;;;;;5.47;1.13;;;7.60;99.90;;;;;;5055218;28;20434;-77
2022/12/27 11:56:28;;;;;;;5.82;1.05;;;7.60;99.90;;;;;;5058103;28;20017;-77
2022/12/27 11:59:23;;;;;;;5.95;0.65;;;7.50;99.90;;;;;;5055381;28;20029;-78
2022/12/27 12:02:06;;;;;;;6.97;1.10;;;7.50;99.90;;;;;;5057472;28;20045;-77
2022/12/27 12:04:32;;;;;;;7.68;0.98;;;7.50;99.90;;;;;;5055864;28;20067;-77
2022/12/27 12:07:10;;;;;;;9.65;1.63;;;7.40;99.90;;;;;;5054693;28;20048;-77
2022/12/27 12:10:03;;;;;;;4.32;0.77;;;7.40;99.90;;;;;;5053313;28;20029;-77
2022/12/27 12:12:46;;;;;;;12.38;2.22;;;7.30;99.90;;;;;;5054967;28;20028;-78
2022/12/27 12:15:20;;;;;;;10.27;2.30;;;7.30;99.90;;;;;;5055118;28;20107;-77
2022/12/27 12:18:23;;;;;;;4.45;0.85;;;7.30;99.90;;;;;;5056527;28;20032;-77
2022/12/27 12:21:26;;;;;;;4.57;0.77;;;7.30;99.90;;;;;;5055139;28;20028;-78
2022/12/27 12:24:16;;;;;;;7.63;1.30;;;7.30;99.90;;;;;;5054055;28;20125;-78
2022/12/27 12:26:59;;;;;;;9.45;1.05;;;7.40;99.90;;;;;;5053773;28;20029;-77
2022/12/27 12:29:34;;;;;;;4.95;1.00;;;7.50;99.90;;;;;;5053474;28;20021;-77
2022/12/27 12:32:25;;;;;;;10.32;1.25;;;7.60;99.90;;;;;;5055037;28;20033;-77
2022/12/27 12:35:05;;;;;;;3.63;0.70;;;7.80;99.90;;;;;;5055285;28;20044;-77
2022/12/27 12:37:33;;;;;;;2.92;0.80;;;7.80;99.90;;;;;;5055333;28;20152;-77
2022/12/27 12:40:50;;;;;;;6.03;0.95;;;7.80;99.90;;;;;;5054843;28;20480;-77
2022/12/27 12:43:34;;;;;;;5.88;0.80;;;7.80;99.90;;;;;;5032275;28;20033;-77
2022/12/27 12:46:26;;;;;;;3.33;0.82;;;7.80;99.90;;;;;;5054745;28;20439;-77
2022/12/27 12:49:38;;;;;;;3.83;0.80;;;7.70;99.90;;;;;;5053410;28;20446;-77
2022/12/27 12:52:17;;;;;;;2.60;0.43;;;7.70;99.90;;;;;;5054001;28;20442;-77
2022/12/27 12:54:54;;;;;;;5.72;1.00;;;7.70;99.90;;;;;;5055231;28;20029;-77
2022/12/27 12:57:57;;;;;;;11.05;1.60;;;7.60;99.90;;;;;;5058393;28;20029;-77
2022/12/27 13:00:31;;;;;;;10.57;2.08;;;7.70;99.90;;;;;;5054932;28;20029;-77
2022/12/27 13:03:24;;;;;;;4.72;0.98;;;7.70;99.90;;;;;;5056313;28;20025;-76
2022/12/27 13:06:01;;;;;;;5.80;1.17;;;7.60;99.90;;;;;;5056176;28;20037;-77
2022/12/27 13:09:08;;;;;;;6.20;1.83;;;7.70;99.90;;;;;;5054880;28;20033;-76
2022/12/27 13:11:34;;;;;;;3.20;1.40;;;7.70;99.90;;;;;;5056737;28;20035;-76
2022/12/27 13:14:20;;;;;;;5.65;1.00;;;7.70;99.90;;;;;;5056188;28;20033;-77
2022/12/27 13:16:59;;;;;;;5.88;0.98;;;7.50;99.90;;;;;;5055182;28;20036;-77
2022/12/27 13:20:00;;;;;;;8.55;1.20;;;7.70;99.90;;;;;;5056285;28;20025;-77
2022/12/27 13:22:57;;;;;;;6.47;1.00;;;7.70;99.90;;;;;;5054637;28;20017;-77
2022/12/27 13:25:47;;;;;;;5.40;1.25;;;7.70;99.90;;;;;;5054830;28;20025;-77
2022/12/27 13:28:31;;;;;;;5.75;1.55;;;7.70;99.90;;;;;;5055816;28;20388;-76
2022/12/27 13:31:34;;;;;;;4.07;0.38;;;7.80;99.90;;;;;;5055753;28;20032;-75
2022/12/27 13:34:07;;;;;;;4.20;1.17;;;7.80;99.90;;;;;;5055749;28;20083;-77
2022/12/27 13:37:11;;;;;;;10.38;1.17;;;7.70;99.90;;;;;;5054232;28;20112;-77
2022/12/27 13:40:06;;;;;;;3.45;0.70;;;7.70;99.90;;;;;;5052308;28;20072;-77
2022/12/27 13:42:58;;;;;;;4.28;0.73;;;7.70;99.90;;;;;;5047358;28;20164;-77
2022/12/27 13:46:01;;;;;;;4.38;0.77;;;7.70;99.90;;;;;;5055675;28;20036;-77
2022/12/27 13:49:10;;;;;;;2.90;0.90;;;7.70;99.90;;;;;;5055934;28;20036;-77
2022/12/27 13:51:41;;;;;;;5.18;0.82;;;7.60;99.90;;;;;;5035562;28;20502;-77
2022/12/27 13:54:25;;;;;;;4.70;0.68;;;7.60;99.90;;;;;;5055770;28;20060;-77
2022/12/27 13:57:16;;;;;;;5.30;1.10;;;7.50;99.90;;;;;;5055872;28;20048;-78
2022/12/27 13:59:51;;;;;;;9.00;0.88;;;7.50;99.90;;;;;;5055335;28;20056;-77
2022/12/27 14:02:19;;;;;;;6.78;0.75;;;7.50;99.90;;;;;;5054061;28;20059;-77
2022/12/27 14:04:51;;;;;;;7.28;1.83;;;7.40;99.90;;;;;;5055013;28;20029;-77
2022/12/27 14:07:35;;;;;;;7.22;1.38;;;7.50;99.90;;;;;;5055148;28;20025;-78
2022/12/27 14:10:18;;;;;;;7.22;0.82;;;7.40;99.90;;;;;;5054947;28;20039;-78
2022/12/27 14:12:55;;;;;;;5.43;1.13;;;7.30;99.90;;;;;;5055670;28;20044;-78
2022/12/27 14:15:26;;;;;;;6.00;1.33;;;7.30;99.90;;;;;;5054806;28;20031;-76
2022/12/27 14:18:10;;;;;;;4.97;1.40;;;7.30;99.90;;;;;;5053693;28;20017;-76
2022/12/27 14:21:12;;;;;;;7.93;1.65;;;7.40;99.90;;;;;;5053459;28;20032;-76
2022/12/27 14:24:08;;;;;;;5.57;1.20;;;7.40;99.90;;;;;;5055077;28;20032;-77
2022/12/27 14:27:11;;;;;;;6.95;0.73;;;7.30;99.90;;;;;;5055133;28;20036;-77
2022/12/27 14:29:55;;;;;;;7.90;1.42;;;7.30;99.90;;;;;;5054542;28;20029;-77
2022/12/27 14:32:48;;;;;;;5.18;0.95;;;7.30;99.90;;;;;;5055079;28;20105;-77
2022/12/27 14:35:14;;;;;;;6.68;1.42;;;7.20;99.90;;;;;;5054924;28;20033;-77
2022/12/27 14:37:52;;;;;;;6.00;1.17;;;7.20;99.90;;;;;;5054344;28;20095;-76
2022/12/27 14:40:58;;;;;;;6.20;1.33;;;7.20;99.90;;;;;;5052974;28;20029;-77
2022/12/27 14:44:00;;;;;;;6.22;0.80;;;7.20;99.90;;;;;;5054282;28;20017;-77
2022/12/27 14:47:03;;;;;;;8.70;1.73;;;7.10;99.90;;;;;;5054182;28;20389;-77
2022/12/27 14:50:09;;;;;;;4.43;0.47;;;7.10;99.90;;;;;;5054144;28;20025;-76
2022/12/27 14:52:50;;;;;;;6.00;1.17;;;7.10;99.90;;;;;;5054232;28;20074;-74
2022/12/27 14:55:32;;;;;;;4.38;1.05;;;7.10;99.90;;;;;;5052890;28;20023;-76
2022/12/27 14:58:00;;;;;;;4.45;0.50;;;7.10;99.90;;;;;;5052804;28;20032;-75
2022/12/27 15:00:30;;;;;;;4.93;1.05;;;7.00;99.90;;;;;;5054024;28;20025;-75
2022/12/27 15:03:07;;;;;;;12.88;2.33;;;7.00;99.90;;;;;;5054071;28;20073;-75
2022/12/27 15:06:02;;;;;;;9.13;0.90;;;7.00;99.90;;;;;;5052748;28;20040;-75
2022/12/27 15:09:18;;;;;;;13.60;1.45;;;7.00;99.90;;;;;;5052871;28;20053;-77
2022/12/27 15:12:03;;;;;;;3.30;0.93;;;7.00;99.90;;;;;;5018627;28;20037;-77
2022/12/27 15:14:38;;;;;;;4.95;1.00;;;6.90;99.90;;;;;;5053998;28;20111;-78
2022/12/27 15:17:20;;;;;;;6.13;1.30;;;6.90;99.90;;;;;;5053288;28;20021;-77
2022/12/27 15:20:11;;;;;;;7.97;1.02;;;6.90;99.90;;;;;;5052682;28;20021;-77
2022/12/27 15:22:58;;;;;;;5.30;1.05;;;6.90;99.90;;;;;;5054097;28;20013;-77